createdAt,value
2023-10-27T03:21:20.384Z,2.78
2023-10-27T03:24:23.583Z,2.78
2023-10-27T03:27:25.906Z,2.50
2023-10-27T03:30:29.221Z,1.55
2023-10-27T03:33:31.508Z,1.37
2023-10-27T03:36:34.008Z,1.80
2023-10-27T03:39:36.687Z,1.27
2023-10-27T03:42:39.196Z,0.90
2023-10-27T03:45:41.488Z,1.17
2023-10-27T03:48:45.553Z,1.15
2023-10-27T03:51:48.026Z,1.10
2023-10-27T03:54:50.548Z,1.42
2023-10-27T03:57:54.621Z,1.25
2023-10-27T04:00:57.266Z,1.30
2023-10-27T04:03:59.839Z,1.45
2023-10-27T04:07:02.385Z,1.10
2023-10-27T04:10:05.481Z,1.30
2023-10-27T04:13:10.488Z,0.95
2023-10-27T04:16:13.539Z,0.70
2023-10-27T04:19:16.958Z,1.20
2023-10-27T04:22:19.595Z,1.00
2023-10-27T04:25:21.839Z,0.85
2023-10-27T04:28:24.263Z,0.70
2023-10-27T04:31:27.179Z,0.90
2023-10-27T04:34:29.785Z,0.90
2023-10-27T04:37:33.443Z,0.70
2023-10-27T04:40:36.032Z,0.68
2023-10-27T04:43:38.244Z,1.00
2023-10-27T04:46:40.693Z,1.08
2023-10-27T04:49:44.961Z,1.05
2023-10-27T04:52:47.804Z,1.02
2023-10-27T04:55:50.138Z,0.68
2023-10-27T04:58:52.568Z,0.73
2023-10-27T05:01:54.768Z,1.08
2023-10-27T05:04:57.326Z,1.20
2023-10-27T05:07:59.544Z,1.00
2023-10-27T05:11:02.011Z,1.20
2023-10-27T05:14:04.180Z,0.73
2023-10-27T05:17:06.699Z,0.62
2023-10-27T05:20:09.168Z,0.85
2023-10-27T05:23:11.754Z,0.35
2023-10-27T05:26:15.557Z,0.73
2023-10-27T05:29:18.675Z,0.75
2023-10-27T05:32:20.997Z,0.85
2023-10-27T05:35:23.551Z,0.60
2023-10-27T05:38:25.870Z,0.60
2023-10-27T05:41:28.390Z,0.68
2023-10-27T05:44:30.575Z,0.60
2023-10-27T05:47:33.167Z,0.95
2023-10-27T05:50:35.351Z,1.42
2023-10-27T05:53:38.050Z,0.88
2023-10-27T05:56:40.206Z,1.15
2023-10-27T05:59:42.729Z,0.62
2023-10-27T06:02:44.929Z,0.70
2023-10-27T06:05:47.467Z,0.77
2023-10-27T06:08:52.097Z,0.88
2023-10-27T06:11:54.677Z,0.90
2023-10-27T06:14:57.243Z,0.55
2023-10-27T06:17:59.754Z,0.70
2023-10-27T06:21:02.433Z,1.45
2023-10-27T06:24:08.379Z,1.10
2023-10-27T06:27:10.889Z,0.95
2023-10-27T06:30:14.059Z,0.93
2023-10-27T06:33:16.392Z,1.08
2023-10-27T06:36:18.913Z,1.10
2023-10-27T06:39:21.994Z,1.30
2023-10-27T06:42:26.169Z,1.30
2023-10-27T06:45:28.530Z,1.08
2023-10-27T06:48:31.000Z,1.33
2023-10-27T06:51:33.561Z,2.00
2023-10-27T06:54:36.045Z,1.10
2023-10-27T06:57:38.888Z,1.17
2023-10-27T07:00:41.503Z,1.60
2023-10-27T07:03:43.844Z,1.58
2023-10-27T07:06:46.565Z,1.40
2023-10-27T07:09:49.090Z,1.20
2023-10-27T07:12:51.629Z,1.60
2023-10-27T07:15:54.255Z,2.78
2023-10-27T07:18:57.247Z,1.70
2023-10-27T07:21:59.438Z,1.25
2023-10-27T07:25:01.990Z,1.65
2023-10-27T07:28:04.509Z,1.58
2023-10-27T07:31:08.352Z,1.27
2023-10-27T07:34:10.809Z,1.55
2023-10-27T07:37:13.530Z,1.23
2023-10-27T07:40:18.806Z,1.37
2023-10-27T07:43:21.334Z,1.37
2023-10-27T07:46:23.713Z,1.27
2023-10-27T07:49:26.432Z,1.52
2023-10-27T07:52:29.033Z,1.25
2023-10-27T07:55:31.572Z,1.00
2023-10-27T07:58:33.944Z,1.12
2023-10-27T08:01:36.595Z,1.40
2023-10-27T08:04:39.219Z,1.40
2023-10-27T08:07:41.593Z,0.90
2023-10-27T08:10:47.947Z,0.73
2023-10-27T08:13:50.248Z,0.73
2023-10-27T08:16:54.082Z,0.50
2023-10-27T08:19:56.313Z,0.68
2023-10-27T08:23:00.581Z,1.50
2023-10-27T08:26:03.038Z,0.80
2023-10-27T08:29:05.573Z,1.42
2023-10-27T08:32:07.749Z,0.80
2023-10-27T08:35:10.460Z,1.25
2023-10-27T08:38:12.666Z,0.77
2023-10-27T08:41:15.292Z,2.12
2023-10-27T08:44:25.378Z,0.65
2023-10-27T08:47:32.972Z,0.80
2023-10-27T08:50:36.558Z,0.93
2023-10-27T08:53:41.542Z,0.93
2023-10-27T08:56:43.921Z,1.25
2023-10-27T08:59:47.761Z,1.23
2023-10-27T09:02:50.384Z,0.95
2023-10-27T09:05:52.905Z,0.80
2023-10-27T09:08:57.468Z,1.58
2023-10-27T09:12:01.501Z,0.90
2023-10-27T09:15:07.260Z,0.93
2023-10-27T09:18:10.203Z,0.77
2023-10-27T09:21:12.532Z,1.73
2023-10-27T09:24:29.250Z,0.77
2023-10-27T09:27:32.173Z,1.20
2023-10-27T09:30:39.799Z,0.70
2023-10-27T09:33:42.201Z,2.30
2023-10-27T09:36:59.596Z,0.85
2023-10-27T09:40:01.816Z,1.00
2023-10-27T09:43:06.073Z,1.35
2023-10-27T09:46:08.847Z,1.12
2023-10-27T09:49:15.850Z,1.15
2023-10-27T09:52:21.912Z,1.50
2023-10-27T09:55:25.885Z,0.98
2023-10-27T09:58:38.176Z,1.17
2023-10-27T10:01:40.929Z,1.08
2023-10-27T10:04:52.595Z,1.25
2023-10-27T10:07:58.309Z,0.98
2023-10-27T10:11:21.170Z,1.85
2023-10-27T10:14:49.586Z,0.98
2023-10-27T10:17:52.098Z,1.37
2023-10-27T10:20:58.715Z,0.90
2023-10-27T10:24:04.963Z,0.85
2023-10-27T10:27:11.625Z,0.85
2023-10-27T10:30:24.061Z,1.17
2023-10-27T10:33:30.140Z,0.85
2023-10-27T10:36:32.768Z,0.70
2023-10-27T10:40:12.821Z,0.65
2023-10-27T10:43:21.798Z,1.30
2023-10-27T10:46:30.052Z,1.15
2023-10-27T10:49:33.375Z,1.55
2023-10-27T10:52:37.855Z,1.00
2023-10-27T10:55:40.409Z,1.60
2023-10-27T10:58:42.679Z,0.93
2023-10-27T11:01:45.285Z,1.67
2023-10-27T11:04:48.319Z,1.17
2023-10-27T11:07:50.884Z,1.30
2023-10-27T11:11:04.704Z,1.05
2023-10-27T11:14:07.194Z,1.48
2023-10-27T11:17:12.590Z,1.48
2023-10-27T11:20:15.212Z,1.12
2023-10-27T11:23:18.445Z,1.65
2023-10-27T11:26:24.052Z,1.23
2023-10-27T11:29:26.291Z,0.80
2023-10-27T11:32:28.953Z,1.20
2023-10-27T11:35:31.287Z,1.05
2023-10-27T11:38:35.368Z,1.65
2023-10-27T11:41:37.638Z,0.80
2023-10-27T11:44:45.592Z,0.75
2023-10-27T11:47:47.911Z,1.08
2023-10-27T11:50:50.498Z,0.68
2023-10-27T11:53:52.831Z,0.30
2023-10-27T11:56:55.537Z,0.50
2023-10-27T11:59:57.741Z,0.50
2023-10-27T12:03:01.700Z,0.68
2023-10-27T12:06:04.445Z,0.52
2023-10-27T12:09:06.756Z,0.13
2023-10-27T12:12:10.366Z,1.50
2023-10-27T12:15:15.830Z,0.35
2023-10-27T12:18:20.888Z,0.40
2023-10-27T12:21:28.247Z,0.20
2023-10-27T12:24:35.108Z,0.20
2023-10-27T12:30:39.926Z,0.20
2023-10-27T12:33:42.738Z,0.20
2023-10-27T12:36:46.902Z,0.30
2023-10-27T12:39:50.026Z,0.17
2023-10-27T12:42:52.879Z,0.20
2023-10-27T12:45:55.017Z,0.10
2023-10-27T12:48:57.482Z,0.20
2023-10-27T12:51:59.696Z,0.47
2023-10-27T12:55:02.583Z,0.73
2023-10-27T12:58:05.204Z,0.10
2023-10-27T13:01:07.959Z,0.30
2023-10-27T13:04:10.157Z,0.15
2023-10-27T13:07:12.676Z,0.20
2023-10-27T13:10:16.577Z,0.25
2023-10-27T13:13:21.288Z,0.50
2023-10-27T13:16:23.504Z,0.37
2023-10-27T13:19:26.044Z,0.28
2023-10-27T13:22:28.281Z,0.17
2023-10-27T13:25:31.242Z,0.40
2023-10-27T13:28:33.641Z,0.43
2023-10-27T13:31:37.108Z,0.37
2023-10-27T13:34:39.412Z,0.40
2023-10-27T13:37:44.113Z,0.20
2023-10-27T13:40:46.566Z,0.47
2023-10-27T13:43:49.151Z,0.30
2023-10-27T13:46:51.393Z,0.30
2023-10-27T13:49:57.060Z,0.20
2023-10-27T13:52:59.281Z,1.00
2023-10-27T13:56:01.795Z,0.57
2023-10-27T13:59:06.862Z,0.52
2023-10-27T14:02:09.296Z,0.90
2023-10-27T14:05:13.843Z,0.43
2023-10-27T14:08:16.998Z,0.60
2023-10-27T14:11:19.622Z,0.25
2023-10-27T14:14:21.879Z,0.28
2023-10-27T14:17:24.478Z,0.62
2023-10-27T14:20:28.082Z,0.82
2023-10-27T14:23:30.501Z,0.60
2023-10-27T14:26:32.868Z,0.75
2023-10-27T14:29:35.354Z,0.70
2023-10-27T14:32:38.073Z,0.52
2023-10-27T14:35:40.936Z,0.65
2023-10-27T14:38:45.657Z,0.70
2023-10-27T14:41:48.270Z,0.50
2023-10-27T14:44:51.897Z,0.35
2023-10-27T14:47:54.482Z,0.32
2023-10-27T14:51:00.592Z,0.50
2023-10-27T14:54:04.252Z,0.30
2023-10-27T14:57:06.524Z,0.28
2023-10-27T15:00:11.499Z,0.68
2023-10-27T15:03:13.774Z,0.70
2023-10-27T15:06:16.718Z,0.60
2023-10-27T15:09:18.988Z,0.50
2023-10-27T15:12:21.523Z,0.50
2023-10-27T15:15:23.688Z,0.60
2023-10-27T15:18:26.368Z,0.40
2023-10-27T15:21:28.516Z,0.60
2023-10-27T15:24:30.993Z,0.50
2023-10-27T15:27:33.411Z,0.55
2023-10-27T15:30:35.831Z,0.55
2023-10-27T15:33:39.714Z,0.60
2023-10-27T15:36:42.374Z,0.75
